Time;durP1;ratioP1;P1;durP2;ratioP2;P2;SDS_P1;SDS_P2;PMS_P1;PMS_P2;Temp;Humidity;BMP_temperature;BMP_pressure;BME280_temperature;BME280_humidity;BME280_pressure;Samples;Min_cycle;Max_cycle;Signal;HPM_P1;HPM_P2
2022/06/02 06:39:00;;;;;;;1.13;0.87;;;21.20;51.60;;;;;;5164726;27;88306;-69
2022/06/02 06:41:38;;;;;;;1.17;0.80;;;22.10;62.60;;;;;;5120613;27;88396;-71
2022/06/02 06:44:10;;;;;;;2.30;1.00;;;22.80;58.90;;;;;;5119574;27;88569;-71
2022/06/02 06:46:42;;;;;;;2.10;0.90;;;23.30;56.50;;;;;;5127942;27;90102;-71
2022/06/02 06:49:14;;;;;;;2.83;1.03;;;23.80;55.70;;;;;;5119851;27;90399;-72
2022/06/02 06:51:46;;;;;;;0.80;0.80;;;24.10;54.00;;;;;;5140463;27;88499;-69
2022/06/02 06:54:17;;;;;;;1.23;0.83;;;24.30;53.10;;;;;;5125383;27;88530;-69
2022/06/02 06:56:49;;;;;;;0.70;0.70;;;24.50;52.50;;;;;;5122176;27;89468;-68
2022/06/02 06:59:24;;;;;;;1.10;0.90;;;24.60;51.90;;;;;;5121436;27;89928;-69
2022/06/02 07:01:58;;;;;;;1.37;1.10;;;24.70;51.50;;;;;;5127976;27;88527;-69
2022/06/02 07:04:34;;;;;;;1.70;0.70;;;24.70;51.00;;;;;;5130607;27;88489;-72
2022/06/02 07:07:06;;;;;;;0.80;0.80;;;24.80;50.70;;;;;;5118498;27;90896;-69
2022/06/02 07:09:41;;;;;;;1.47;0.83;;;24.90;50.40;;;;;;5118687;27;89441;-71
2022/06/02 07:15:10;;;;;;;2.20;0.93;;;25.00;49.90;;;;;;5122377;27;88647;-72
2022/06/02 07:17:47;;;;;;;0.83;0.70;;;25.00;49.70;;;;;;5118841;27;93116;-74
2022/06/02 07:20:36;;;;;;;0.60;0.60;;;25.00;49.50;;;;;;5099956;27;89521;-72
2022/06/02 07:23:08;;;;;;;0.60;0.60;;;25.10;49.40;;;;;;5101410;27;88277;-71
2022/06/02 07:25:42;;;;;;;0.97;0.70;;;25.00;49.20;;;;;;5100946;27;88511;-72
2022/06/02 07:28:12;;;;;;;0.60;0.60;;;25.00;49.10;;;;;;5111535;27;90568;-74
2022/06/02 07:30:49;;;;;;;1.60;1.00;;;25.00;48.90;;;;;;5102141;27;89526;-74
2022/06/02 07:33:27;;;;;;;1.63;1.03;;;25.00;49.50;;;;;;5096439;27;88598;-74
2022/06/02 07:36:16;;;;;;;0.97;0.87;;;25.00;48.70;;;;;;5099714;27;89299;-74
2022/06/02 07:39:07;;;;;;;0.90;0.90;;;25.00;48.60;;;;;;5100648;27;91691;-74
2022/06/02 07:41:46;;;;;;;2.57;0.90;;;25.00;48.50;;;;;;5056209;27;89961;-74
2022/06/02 07:44:26;;;;;;;0.80;0.80;;;25.00;48.40;;;;;;5112705;27;88454;-74
2022/06/02 07:47:13;;;;;;;1.20;0.97;;;25.00;48.40;;;;;;5100883;27;88828;-74
2022/06/02 07:49:47;;;;;;;1.37;0.80;;;24.90;48.20;;;;;;5106319;27;90790;-74
2022/06/02 07:52:19;;;;;;;3.47;1.00;;;24.90;48.00;;;;;;5087231;27;89216;-74
2022/06/02 07:54:52;;;;;;;0.50;0.50;;;24.90;47.90;;;;;;5083802;27;88526;-75
2022/06/02 07:57:25;;;;;;;1.27;1.17;;;25.00;47.90;;;;;;5083951;27;89432;-74
2022/06/02 08:00:05;;;;;;;0.60;0.60;;;25.00;47.80;;;;;;5085561;27;89693;-74
2022/06/02 08:03:02;;;;;;;1.07;0.60;;;24.90;47.60;;;;;;5084498;27;88788;-72
2022/06/02 08:05:35;;;;;;;2.00;0.60;;;24.90;47.60;;;;;;5012094;27;88798;-72
2022/06/02 08:08:13;;;;;;;1.57;0.60;;;24.90;47.50;;;;;;5086059;27;88517;-73
2022/06/02 08:10:47;;;;;;;1.10;1.00;;;24.90;47.40;;;;;;5084026;27;90619;-73
2022/06/02 08:13:22;;;;;;;1.00;0.90;;;25.00;47.40;;;;;;5084055;27;89922;-74
2022/06/02 08:15:52;;;;;;;2.07;0.90;;;25.00;47.30;;;;;;5085869;27;88296;-73
2022/06/02 08:18:33;;;;;;;1.27;0.90;;;24.90;47.10;;;;;;5104914;27;88604;-71
2022/06/02 08:21:15;;;;;;;0.67;0.67;;;25.00;47.20;;;;;;5093141;27;91250;-74
2022/06/02 08:24:04;;;;;;;0.80;0.60;;;25.00;47.20;;;;;;5084303;27;90128;-74
2022/06/02 08:26:34;;;;;;;2.63;1.00;;;25.00;47.30;;;;;;5089143;27;88367;-74
2022/06/02 08:29:11;;;;;;;0.60;0.60;;;24.90;47.20;;;;;;5101809;27;89158;-74
2022/06/02 08:31:51;;;;;;;1.10;1.00;;;24.90;47.30;;;;;;5090819;27;90721;-72
2022/06/02 08:34:20;;;;;;;1.90;1.10;;;24.90;47.30;;;;;;5089378;27;89951;-72
2022/06/02 08:37:00;;;;;;;0.87;0.87;;;24.90;47.30;;;;;;5083215;27;88441;-71
2022/06/02 08:39:51;;;;;;;5.40;1.03;;;24.90;47.30;;;;;;5083370;27;88613;-71
2022/06/02 08:42:27;;;;;;;1.03;0.97;;;24.90;47.30;;;;;;5095629;27;91018;-71
2022/06/02 08:45:07;;;;;;;1.43;1.07;;;24.90;47.30;;;;;;5102014;27;92158;-72
2022/06/02 08:48:08;;;;;;;5.47;1.20;;;24.90;47.30;;;;;;5092190;27;88412;-71
2022/06/02 08:51:12;;;;;;;0.70;0.70;;;24.90;47.30;;;;;;5098326;27;88564;-71
2022/06/02 08:54:24;;;;;;;1.13;0.80;;;24.90;47.20;;;;;;5090915;27;89915;-73
2022/06/02 08:57:16;;;;;;;0.60;0.60;;;24.90;47.30;;;;;;5098550;27;89512;-72
2022/06/02 09:00:04;;;;;;;2.77;0.90;;;24.90;47.20;;;;;;5097216;27;88412;-71
2022/06/02 09:02:43;;;;;;;0.60;0.60;;;24.90;47.20;;;;;;5083107;27;89581;-72
2022/06/02 09:05:37;;;;;;;1.63;0.90;;;24.90;47.20;;;;;;5083502;27;89838;-71
2022/06/02 09:08:20;;;;;;;2.10;0.80;;;24.90;47.20;;;;;;5097994;27;89386;-71
2022/06/02 09:10:56;;;;;;;1.23;0.80;;;24.90;47.10;;;;;;5102677;27;88485;-71
2022/06/02 09:13:39;;;;;;;1.37;0.70;;;24.90;47.10;;;;;;5083625;27;88412;-71
2022/06/02 09:16:22;;;;;;;0.77;0.77;;;24.90;47.70;;;;;;5094570;27;90649;-71
2022/06/02 09:19:19;;;;;;;2.07;1.10;;;24.90;47.00;;;;;;5085937;27;90274;-71
2022/06/02 09:22:18;;;;;;;1.00;0.83;;;24.90;47.00;;;;;;5084930;27;90536;-71
2022/06/02 09:24:51;;;;;;;0.93;0.83;;;24.90;47.00;;;;;;5088475;27;89254;-71
2022/06/02 09:27:55;;;;;;;1.30;0.70;;;24.90;46.90;;;;;;5087501;27;92931;-71
2022/06/02 09:30:28;;;;;;;1.40;1.00;;;24.90;46.90;;;;;;5067700;27;93074;-71
2022/06/02 09:33:33;;;;;;;3.23;1.10;;;24.90;46.70;;;;;;5083491;27;89225;-71
2022/06/02 09:35:56;;;;;;;3.27;1.00;;;24.90;46.70;;;;;;5083415;27;88484;-71
2022/06/02 09:38:34;;;;;;;1.50;0.90;;;24.90;46.70;;;;;;5096987;27;90630;-71
2022/06/02 09:41:13;;;;;;;0.80;0.80;;;24.90;46.60;;;;;;5091426;27;89425;-71
2022/06/02 09:44:11;;;;;;;0.80;0.80;;;24.90;46.50;;;;;;5084967;27;89252;-70
2022/06/02 09:47:27;;;;;;;0.77;0.60;;;24.90;46.50;;;;;;5083278;27;88492;-71
2022/06/02 09:50:30;;;;;;;0.67;0.67;;;24.90;46.50;;;;;;5036436;28;89920;-71
2022/06/02 09:53:30;;;;;;;0.47;0.47;;;24.90;46.50;;;;;;5088180;27;90433;-71
2022/06/02 09:56:20;;;;;;;0.70;0.70;;;24.90;46.50;;;;;;5055314;27;89598;-71
2022/06/02 09:59:01;;;;;;;1.37;1.03;;;24.90;46.40;;;;;;5097162;27;88694;-71
2022/06/02 10:01:37;;;;;;;0.50;0.43;;;24.90;46.40;;;;;;5087123;27;93384;-71
2022/06/02 10:04:46;;;;;;;1.43;0.73;;;25.00;46.50;;;;;;5084176;27;90051;-72
2022/06/02 10:07:44;;;;;;;2.00;0.97;;;25.00;46.40;;;;;;5101324;27;88612;-71
2022/06/02 10:10:34;;;;;;;2.37;0.70;;;25.00;46.50;;;;;;5090082;27;88495;-71
2022/06/02 10:13:27;;;;;;;0.70;0.70;;;24.90;46.30;;;;;;5083199;27;90540;-71
2022/06/02 10:16:10;;;;;;;0.53;0.53;;;24.90;46.40;;;;;;5057056;27;90531;-71
2022/06/02 10:18:53;;;;;;;0.83;0.83;;;24.90;46.30;;;;;;5098241;27;88439;-70
2022/06/02 10:21:26;;;;;;;0.70;0.70;;;24.90;46.30;;;;;;5101954;27;88461;-71
2022/06/02 10:24:21;;;;;;;2.00;0.67;;;25.00;46.30;;;;;;5092744;27;90363;-72
2022/06/02 10:26:56;;;;;;;0.50;0.50;;;24.90;46.20;;;;;;5091530;27;90067;-71
2022/06/02 10:29:56;;;;;;;0.97;0.67;;;25.00;46.20;;;;;;5082585;27;88313;-72
2022/06/02 10:32:46;;;;;;;1.43;0.77;;;25.00;46.20;;;;;;5097699;27;88432;-72
2022/06/02 10:35:35;;;;;;;3.00;0.70;;;25.00;46.10;;;;;;5083903;27;90625;-72
2022/06/02 10:38:14;;;;;;;1.87;0.80;;;25.00;46.10;;;;;;5094227;27;90029;-72
2022/06/02 10:41:21;;;;;;;1.33;0.73;;;25.10;46.70;;;;;;5082653;27;88439;-72
2022/06/02 10:44:07;;;;;;;2.43;0.80;;;25.10;46.00;;;;;;5070805;27;88989;-72
2022/06/02 10:47:09;;;;;;;0.73;0.73;;;25.10;45.90;;;;;;5089344;27;90565;-71
2022/06/02 10:49:39;;;;;;;1.10;0.67;;;25.10;45.90;;;;;;5102518;27;89949;-71
2022/06/02 10:52:38;;;;;;;0.97;0.77;;;25.10;45.80;;;;;;5098202;27;88473;-72
2022/06/02 10:55:51;;;;;;;0.70;0.70;;;25.10;45.80;;;;;;5085469;27;88616;-72
2022/06/02 10:59:01;;;;;;;1.80;0.70;;;25.20;45.80;;;;;;5080828;27;90651;-72
2022/06/02 11:01:46;;;;;;;0.60;0.57;;;25.20;45.70;;;;;;5102267;27;89701;-72
2022/06/02 11:04:54;;;;;;;4.63;0.90;;;25.20;45.60;;;;;;5084745;27;88213;-72
2022/06/02 11:07:51;;;;;;;0.90;0.60;;;25.20;45.60;;;;;;5058620;27;88824;-72
2022/06/02 11:10:25;;;;;;;0.53;0.50;;;25.20;45.50;;;;;;5081427;27;90957;-72
2022/06/02 11:13:21;;;;;;;1.07;0.97;;;25.30;45.50;;;;;;5095960;27;90009;-72
2022/06/02 11:16:14;;;;;;;0.53;0.53;;;25.30;45.50;;;;;;5082738;27;88342;-71
2022/06/02 11:19:08;;;;;;;1.23;0.80;;;25.30;45.40;;;;;;5088458;27;88457;-72
2022/06/02 11:21:52;;;;;;;0.53;0.53;;;25.30;45.30;;;;;;5077947;27;90616;-72
2022/06/02 11:24:55;;;;;;;1.70;0.97;;;25.40;45.30;;;;;;5093726;27;90081;-71
2022/06/02 11:28:01;;;;;;;0.70;0.70;;;25.30;45.20;;;;;;5104736;27;88904;-71
2022/06/02 11:30:49;;;;;;;0.60;0.60;;;25.30;45.20;;;;;;5072048;27;88421;-71
2022/06/02 11:33:36;;;;;;;1.57;0.90;;;25.40;45.20;;;;;;5085377;27;89099;-71
2022/06/02 11:36:22;;;;;;;2.50;0.80;;;25.40;45.20;;;;;;5091075;27;90039;-70
2022/06/02 11:39:25;;;;;;;1.33;0.60;;;25.40;45.10;;;;;;5093417;27;88590;-70
2022/06/02 11:41:57;;;;;;;1.23;0.77;;;25.40;45.10;;;;;;5087549;27;89561;-70
2022/06/02 11:44:37;;;;;;;0.70;0.70;;;25.40;45.00;;;;;;5103056;27;90186;-70
2022/06/02 11:47:21;;;;;;;0.87;0.63;;;25.40;45.00;;;;;;5092184;27;89550;-69
2022/06/02 11:50:17;;;;;;;0.90;0.90;;;25.40;45.00;;;;;;5092559;27;88416;-70
2022/06/02 11:52:56;;;;;;;0.73;0.73;;;25.40;44.90;;;;;;5085277;27;88731;-70
2022/06/02 11:55:31;;;;;;;0.87;0.70;;;25.40;44.80;;;;;;5102582;27;89448;-70
2022/06/02 11:58:28;;;;;;;2.53;1.20;;;25.50;44.80;;;;;;5103798;27;92548;-69
2022/06/02 12:01:13;;;;;;;1.23;1.00;;;25.50;44.80;;;;;;5100164;27;88643;-69
2022/06/02 12:04:15;;;;;;;0.50;0.50;;;25.50;44.70;;;;;;5089596;27;88570;-71
2022/06/02 12:07:06;;;;;;;0.97;0.77;;;25.50;45.40;;;;;;5072801;27;92247;-72
2022/06/02 12:09:54;;;;;;;1.17;0.90;;;25.50;44.70;;;;;;5084451;27;92877;-72
2022/06/02 12:12:41;;;;;;;0.90;0.90;;;25.60;44.70;;;;;;5094142;27;88366;-71
2022/06/02 12:15:40;;;;;;;1.30;0.87;;;25.60;44.70;;;;;;5093104;27;88492;-69
2022/06/02 12:18:26;;;;;;;0.67;0.67;;;25.60;44.60;;;;;;5084109;27;93586;-70
2022/06/02 12:21:26;;;;;;;0.93;0.80;;;25.70;44.70;;;;;;5094634;27;90260;-70
2022/06/02 12:24:10;;;;;;;1.10;0.60;;;25.70;44.70;;;;;;5094343;27;88238;-70
2022/06/02 12:26:45;;;;;;;0.87;0.87;;;25.70;44.60;;;;;;5084403;27;88489;-69
2022/06/02 12:29:20;;;;;;;0.70;0.70;;;25.70;44.60;;;;;;5084503;27;92910;-71
2022/06/02 12:32:03;;;;;;;1.33;0.97;;;25.70;44.50;;;;;;5086378;27;88784;-72
2022/06/02 12:34:45;;;;;;;0.73;0.70;;;25.80;44.50;;;;;;5084093;27;88265;-72
2022/06/02 12:37:40;;;;;;;1.00;0.90;;;25.80;44.50;;;;;;5099170;27;88416;-72
2022/06/02 12:40:21;;;;;;;0.70;0.70;;;25.80;44.50;;;;;;5084555;27;90338;-71
2022/06/02 12:43:28;;;;;;;1.10;1.00;;;25.80;44.40;;;;;;5097099;27;89921;-71
2022/06/02 12:46:01;;;;;;;0.70;0.70;;;25.80;44.40;;;;;;5091228;27;88690;-70
2022/06/02 12:49:14;;;;;;;0.60;0.60;;;25.90;44.40;;;;;;5104381;27;88501;-70
2022/06/02 12:52:31;;;;;;;1.07;0.90;;;25.90;44.50;;;;;;5095050;27;90794;-68
2022/06/02 12:55:19;;;;;;;1.03;0.77;;;25.90;44.40;;;;;;5019621;28;91840;-72
2022/06/02 12:58:07;;;;;;;0.90;0.90;;;25.90;44.40;;;;;;5083192;27;88262;-72
2022/06/02 13:00:56;;;;;;;1.20;1.10;;;25.90;44.40;;;;;;5098456;27;88448;-71
2022/06/02 13:03:51;;;;;;;0.97;0.70;;;25.90;44.40;;;;;;5083582;27;90243;-71
2022/06/02 13:06:54;;;;;;;0.93;0.80;;;26.00;44.50;;;;;;5091017;27;89905;-71
2022/06/02 13:09:43;;;;;;;1.90;0.70;;;26.00;44.60;;;;;;5104028;27;88676;-71
2022/06/02 13:12:50;;;;;;;0.90;0.87;;;26.10;44.70;;;;;;5093212;27;88440;-71
2022/06/02 13:15:35;;;;;;;1.53;0.73;;;26.10;44.70;;;;;;5083551;27;90710;-71
2022/06/02 13:18:35;;;;;;;1.03;0.70;;;26.10;44.70;;;;;;5082513;27;91877;-71
2022/06/02 13:21:52;;;;;;;0.70;0.70;;;26.10;44.80;;;;;;5088124;27;88574;-71
2022/06/02 13:24:37;;;;;;;0.67;0.67;;;26.10;44.80;;;;;;5096795;27;88503;-71
2022/06/02 13:27:34;;;;;;;1.93;0.73;;;26.20;44.80;;;;;;5089777;27;93212;-71
2022/06/02 13:30:23;;;;;;;0.83;0.83;;;26.20;45.00;;;;;;5085495;27;91305;-70
2022/06/02 13:33:33;;;;;;;0.97;0.60;;;26.20;45.00;;;;;;5088432;27;88643;-73
2022/06/02 13:36:09;;;;;;;4.00;0.80;;;26.30;45.00;;;;;;5098675;27;88497;-75
2022/06/02 13:38:59;;;;;;;0.50;0.50;;;26.30;45.00;;;;;;5086244;27;90656;-75
2022/06/02 13:41:53;;;;;;;0.70;0.57;;;26.30;45.00;;;;;;5099748;27;89996;-74
2022/06/02 13:44:51;;;;;;;0.63;0.63;;;26.30;45.00;;;;;;5068154;27;88804;-74
2022/06/02 13:47:35;;;;;;;1.17;0.97;;;26.40;45.10;;;;;;5064384;27;88768;-74
2022/06/02 13:50:35;;;;;;;0.53;0.43;;;26.40;45.00;;;;;;5103143;27;90605;-71
2022/06/02 13:57:30;;;;;;;0.53;0.53;;;26.40;45.00;;;;;;5088175;27;92800;-75
2022/06/02 13:59:37;;;;;;;2.20;0.80;;;26.40;45.00;;;;;;5087361;27;88625;-74
2022/06/02 14:02:39;;;;;;;0.73;0.60;;;26.50;45.00;;;;;;5099162;27;90920;-74
2022/06/02 14:05:13;;;;;;;0.60;0.60;;;26.50;45.00;;;;;;5084142;27;89500;-74
2022/06/02 14:08:11;;;;;;;1.43;0.60;;;26.50;45.00;;;;;;5101074;27;88373;-71
2022/06/02 14:10:58;;;;;;;1.70;0.60;;;26.50;45.00;;;;;;5036450;27;88792;-71
2022/06/02 14:14:02;;;;;;;0.40;0.40;;;26.50;45.00;;;;;;5101753;27;94077;-71
2022/06/02 14:16:36;;;;;;;6.13;0.67;;;26.60;45.00;;;;;;5074120;27;90112;-74
2022/06/02 14:19:12;;;;;;;3.23;0.70;;;26.60;44.90;;;;;;5082912;27;88460;-73
2022/06/02 14:21:46;;;;;;;0.77;0.70;;;26.60;44.90;;;;;;5082562;27;88980;-71
2022/06/02 14:24:17;;;;;;;0.87;0.50;;;26.70;44.90;;;;;;5089934;27;93229;-74
2022/06/02 14:26:59;;;;;;;1.13;0.70;;;26.70;44.80;;;;;;5087803;27;90046;-74
2022/06/02 14:29:32;;;;;;;0.53;0.53;;;26.70;44.80;;;;;;5094572;27;88501;-70
2022/06/02 14:32:06;;;;;;;0.50;0.50;;;26.80;44.80;;;;;;5091951;27;88463;-71
2022/06/02 14:34:41;;;;;;;0.60;0.60;;;26.80;45.40;;;;;;5090604;27;91671;-72
2022/06/02 14:37:11;;;;;;;0.60;0.60;;;26.80;44.70;;;;;;5088441;27;89945;-71
2022/06/02 14:39:47;;;;;;;0.50;0.50;;;26.90;44.70;;;;;;5082207;27;89248;-72
2022/06/02 14:43:06;;;;;;;1.37;1.10;;;26.90;45.30;;;;;;5080290;27;88560;-73
2022/06/02 14:45:51;;;;;;;0.50;0.50;;;26.90;44.70;;;;;;5084095;27;90839;-74
2022/06/02 14:48:22;;;;;;;0.77;0.70;;;26.90;44.70;;;;;;5083490;27;90083;-75
2022/06/02 14:50:55;;;;;;;4.00;0.53;;;27.00;44.70;;;;;;5086064;27;88356;-72
2022/06/02 14:53:42;;;;;;;0.87;0.70;;;27.00;44.70;;;;;;5102529;27;88494;-71
2022/06/02 14:56:29;;;;;;;1.40;0.90;;;27.00;44.80;;;;;;5102239;27;91055;-70
2022/06/02 14:59:08;;;;;;;1.10;0.60;;;27.00;44.80;;;;;;5103013;27;89299;-73
2022/06/02 15:01:39;;;;;;;1.17;1.00;;;27.00;44.80;;;;;;5088515;27;88734;-73
2022/06/02 15:04:21;;;;;;;0.60;0.60;;;27.00;44.80;;;;;;5104007;27;88438;-74
2022/06/02 15:07:04;;;;;;;0.77;0.73;;;27.00;44.80;;;;;;5092438;27;93190;-74
2022/06/02 15:09:40;;;;;;;0.70;0.70;;;27.00;44.90;;;;;;5092377;27;90096;-74
2022/06/02 15:12:29;;;;;;;1.00;0.70;;;27.00;44.90;;;;;;5087658;27;88639;-71
2022/06/02 15:15:07;;;;;;;1.63;0.53;;;27.00;44.90;;;;;;5086940;27;88591;-73
2022/06/02 15:17:45;;;;;;;0.50;0.50;;;27.00;44.90;;;;;;5085289;27;90600;-73
2022/06/02 15:20:19;;;;;;;0.60;0.60;;;27.00;44.90;;;;;;5093404;27;90020;-70
2022/06/02 15:23:43;;;;;;;0.93;0.80;;;27.00;44.90;;;;;;5090156;27;88519;-68
2022/06/02 15:26:20;;;;;;;0.60;0.60;;;27.00;44.90;;;;;;5102604;27;88726;-72
2022/06/02 15:29:31;;;;;;;1.70;1.00;;;27.00;45.00;;;;;;5085676;27;90336;-70
2022/06/02 15:32:22;;;;;;;1.43;0.80;;;27.00;45.00;;;;;;5051237;27;92788;-72
2022/06/02 15:35:24;;;;;;;0.73;0.73;;;27.00;45.10;;;;;;5102139;27;88515;-66
2022/06/02 15:38:18;;;;;;;0.73;0.73;;;27.00;45.10;;;;;;5098788;27;88494;-71
2022/06/02 15:41:11;;;;;;;1.40;0.70;;;27.00;45.20;;;;;;5085355;27;93691;-66
2022/06/02 15:44:29;;;;;;;4.53;1.10;;;27.10;45.20;;;;;;5083751;27;90012;-66
2022/06/02 15:47:23;;;;;;;2.77;1.10;;;27.10;45.10;;;;;;5001547;28;88604;-69
2022/06/02 15:50:24;;;;;;;10.60;2.77;;;27.00;44.50;;;;;;5000743;28;88592;-69
2022/06/02 15:53:05;;;;;;;9.33;3.20;;;27.00;44.10;;;;;;5092109;27;92187;-68
2022/06/02 15:55:58;;;;;;;9.00;4.53;;;26.80;43.30;;;;;;5084598;27;89952;-71
2022/06/02 15:58:39;;;;;;;8.23;3.93;;;26.60;42.90;;;;;;5084205;27;89758;-69
2022/06/02 16:01:33;;;;;;;6.33;3.27;;;26.60;42.60;;;;;;5090434;27;88748;-68
2022/06/02 16:04:31;;;;;;;7.80;3.17;;;26.60;42.40;;;;;;5100997;27;90605;-66
2022/06/02 16:07:32;;;;;;;6.50;1.90;;;26.50;42.10;;;;;;5088702;27;92669;-67
2022/06/02 16:13:54;;;;;;;2.70;1.90;;;26.50;42.20;;;;;;5085045;27;88486;-65
2022/06/02 16:16:59;;;;;;;5.60;1.90;;;26.50;41.50;;;;;;5093214;27;90166;-65
2022/06/02 16:20:16;;;;;;;3.57;2.50;;;26.50;41.50;;;;;;5088951;27;90079;-68
2022/06/02 16:23:21;;;;;;;3.23;2.23;;;26.50;41.40;;;;;;5000442;28;88663;-70
2022/06/02 16:26:06;;;;;;;5.93;2.63;;;26.50;41.50;;;;;;5087995;27;88515;-70
2022/06/02 16:29:22;;;;;;;2.80;2.20;;;26.60;41.40;;;;;;5085443;27;90858;-69
2022/06/02 16:31:53;;;;;;;1.73;1.63;;;26.50;41.10;;;;;;5037375;27;90139;-69
2022/06/02 16:34:26;;;;;;;1.70;1.60;;;26.40;40.70;;;;;;5084068;27;88449;-70
2022/06/02 16:37:12;;;;;;;3.33;1.90;;;26.40;40.60;;;;;;5093758;27;88556;-69
2022/06/02 16:39:53;;;;;;;2.90;1.93;;;26.30;40.40;;;;;;5100165;27;90580;-68
2022/06/02 16:42:42;;;;;;;2.10;1.83;;;26.30;40.20;;;;;;5087779;27;88921;-70
2022/06/02 16:45:41;;;;;;;4.53;1.80;;;26.20;40.10;;;;;;5086160;27;88516;-69
2022/06/02 16:48:32;;;;;;;2.20;1.63;;;26.20;40.60;;;;;;5091407;27;88573;-68
2022/06/02 16:51:08;;;;;;;2.17;1.87;;;26.10;40.50;;;;;;5086561;27;89451;-69
2022/06/02 16:53:57;;;;;;;2.37;2.00;;;26.00;39.70;;;;;;5082633;27;89998;-68
2022/06/02 16:56:52;;;;;;;2.80;1.60;;;26.00;39.60;;;;;;5086127;27;88417;-69
2022/06/02 16:59:27;;;;;;;2.13;1.53;;;26.00;39.70;;;;;;5091416;27;89518;-69
2022/06/02 17:02:05;;;;;;;2.40;1.83;;;26.10;39.60;;;;;;5089646;27;90689;-69
2022/06/02 17:05:01;;;;;;;3.20;1.50;;;26.10;39.50;;;;;;5089066;27;92746;-69
2022/06/02 17:07:51;;;;;;;4.33;1.83;;;26.20;39.50;;;;;;5083639;27;88237;-68
2022/06/02 17:10:24;;;;;;;2.00;1.80;;;26.20;39.60;;;;;;5094236;27;88619;-69
2022/06/02 17:12:55;;;;;;;4.00;2.37;;;26.30;39.50;;;;;;5101545;27;90842;-68
2022/06/02 17:15:54;;;;;;;3.00;2.17;;;26.30;39.60;;;;;;5089329;27;90157;-69
2022/06/02 17:18:30;;;;;;;4.60;1.77;;;26.30;39.50;;;;;;5092829;27;88521;-71
2022/06/02 17:21:07;;;;;;;2.60;1.87;;;26.30;39.40;;;;;;5084719;27;88451;-72
2022/06/02 17:23:53;;;;;;;8.03;1.30;;;26.30;39.30;;;;;;5088759;27;90520;-70
2022/06/02 17:26:51;;;;;;;1.70;1.50;;;26.30;39.20;;;;;;5101004;27;89416;-68
2022/06/02 17:29:28;;;;;;;2.50;1.60;;;26.10;38.90;;;;;;5084189;27;88484;-68
2022/06/02 17:32:25;;;;;;;1.87;1.70;;;25.90;38.80;;;;;;5082999;27;88549;-67
2022/06/02 17:35:18;;;;;;;1.33;1.13;;;25.70;38.80;;;;;;5082147;27;89842;-67
2022/06/02 17:38:09;;;;;;;2.40;1.50;;;25.70;38.90;;;;;;5073979;27;90139;-67
2022/06/02 17:40:49;;;;;;;1.97;1.53;;;25.70;38.90;;;;;;5083709;27;88502;-67
2022/06/02 17:43:34;;;;;;;5.83;3.27;;;25.80;39.60;;;;;;5083790;27;88452;-66
2022/06/02 17:46:12;;;;;;;10.13;5.57;;;25.90;38.90;;;;;;5082983;27;90969;-70
2022/06/02 17:49:04;;;;;;;5.53;3.93;;;26.00;39.00;;;;;;5085433;27;89983;-68
2022/06/02 17:52:19;;;;;;;7.60;3.97;;;26.00;38.90;;;;;;5051721;27;88517;-69
2022/06/02 17:55:11;;;;;;;7.30;4.53;;;26.10;38.90;;;;;;5085299;27;88457;-69
2022/06/02 17:58:01;;;;;;;7.03;3.97;;;26.10;38.90;;;;;;5089864;27;90586;-69
2022/06/02 18:00:32;;;;;;;5.60;3.47;;;26.10;38.90;;;;;;5091483;27;88564;-69
2022/06/02 18:03:03;;;;;;;4.87;3.50;;;26.10;38.90;;;;;;5087539;27;89173;-66
2022/06/02 18:05:44;;;;;;;5.70;3.10;;;26.10;38.90;;;;;;5090082;27;88708;-68
2022/06/02 18:08:54;;;;;;;4.87;2.63;;;26.10;39.00;;;;;;5087514;27;88957;-66
2022/06/02 18:11:39;;;;;;;3.30;2.90;;;26.00;39.00;;;;;;5043641;27;90619;-66
2022/06/02 18:14:45;;;;;;;4.90;3.33;;;26.00;39.10;;;;;;5085109;27;88506;-67
2022/06/02 18:17:46;;;;;;;6.57;3.30;;;26.00;39.20;;;;;;5085024;27;88452;-67
2022/06/02 18:20:46;;;;;;;5.27;3.00;;;26.00;39.30;;;;;;5086282;27;90671;-68
2022/06/02 18:23:52;;;;;;;2.87;2.50;;;26.00;39.40;;;;;;5091226;27;93601;-67
2022/06/02 18:26:21;;;;;;;5.07;3.17;;;26.00;39.40;;;;;;5084620;27;88600;-67
2022/06/02 18:29:21;;;;;;;3.00;2.67;;;26.00;39.60;;;;;;5088065;27;88650;-66
2022/06/02 18:32:33;;;;;;;3.90;2.30;;;25.90;39.50;;;;;;5093443;27;90912;-68
2022/06/02 18:35:12;;;;;;;5.80;2.40;;;25.90;39.60;;;;;;5074840;27;90602;-68
2022/06/02 18:38:04;;;;;;;5.97;2.70;;;25.90;39.60;;;;;;5087060;27;89975;-68
2022/06/02 18:40:51;;;;;;;6.60;2.40;;;25.90;39.70;;;;;;5083201;27;89043;-66
2022/06/02 18:43:52;;;;;;;4.97;2.70;;;25.90;39.70;;;;;;5090981;27;90654;-68
2022/06/02 18:47:05;;;;;;;3.17;2.30;;;25.90;39.80;;;;;;5089758;27;89958;-71
2022/06/02 18:50:21;;;;;;;7.63;3.27;;;25.90;39.80;;;;;;5046611;27;89137;-68
2022/06/02 18:53:11;;;;;;;5.47;3.50;;;25.90;39.90;;;;;;5029021;27;88718;-70
2022/06/02 18:56:14;;;;;;;3.30;2.67;;;25.90;40.00;;;;;;5083742;27;89528;-73
2022/06/02 18:59:00;;;;;;;5.20;3.40;;;25.90;40.10;;;;;;5043460;27;90225;-74
2022/06/02 19:01:44;;;;;;;6.97;2.93;;;25.90;40.10;;;;;;5086825;27;88559;-74
2022/06/02 19:04:56;;;;;;;5.00;3.10;;;25.90;40.20;;;;;;5091762;27;89998;-75
2022/06/02 19:13:52;;;;;;;4.20;2.30;;;25.80;40.30;;;;;;5082932;27;88542;-74
2022/06/02 19:16:49;;;;;;;2.17;1.87;;;25.70;40.30;;;;;;5085664;27;88661;-74
2022/06/02 19:19:33;;;;;;;1.87;1.70;;;25.60;40.30;;;;;;5081721;27;90693;-72
2022/06/02 19:22:07;;;;;;;2.43;1.70;;;25.60;40.30;;;;;;5084929;27;92629;-75
2022/06/02 19:24:57;;;;;;;4.67;1.60;;;25.60;40.30;;;;;;5089240;27;88386;-74
2022/06/02 19:27:35;;;;;;;1.97;1.60;;;25.50;40.30;;;;;;5082552;27;88611;-74
2022/06/02 19:30:22;;;;;;;3.53;1.40;;;25.60;40.50;;;;;;5081086;27;90942;-76
2022/06/02 19:33:07;;;;;;;3.47;1.27;;;25.50;40.40;;;;;;5082078;27;88943;-74
2022/06/02 19:35:38;;;;;;;1.90;1.67;;;25.50;40.50;;;;;;5080377;27;88413;-74
2022/06/02 19:38:11;;;;;;;1.97;1.30;;;25.50;40.50;;;;;;5083565;27;88519;-74
2022/06/02 19:40:45;;;;;;;1.73;1.33;;;25.50;40.60;;;;;;5082106;27;92572;-74
2022/06/02 19:43:18;;;;;;;1.37;1.20;;;25.50;40.60;;;;;;5080321;27;89969;-74
2022/06/02 19:45:50;;;;;;;2.03;1.30;;;25.50;40.60;;;;;;5083777;27;89009;-75
2022/06/02 19:48:21;;;;;;;2.40;1.70;;;25.50;40.60;;;;;;5087863;27;89886;-75
2022/06/02 19:50:51;;;;;;;2.50;1.57;;;25.50;40.60;;;;;;5096964;27;90818;-74
2022/06/02 19:53:26;;;;;;;2.40;1.77;;;25.50;40.70;;;;;;5084263;27;88558;-74
2022/06/02 19:55:59;;;;;;;3.07;1.50;;;25.50;40.80;;;;;;5084221;27;88534;-76
2022/06/02 19:58:40;;;;;;;3.30;2.13;;;25.50;40.90;;;;;;5088728;27;88602;-73
2022/06/02 20:01:12;;;;;;;2.37;1.90;;;25.50;40.90;;;;;;5085753;27;90690;-74
2022/06/02 20:03:45;;;;;;;2.50;2.03;;;25.50;40.90;;;;;;5083631;27;90026;-74
2022/06/02 20:06:17;;;;;;;2.17;1.93;;;25.50;41.00;;;;;;5093595;27;88495;-74
2022/06/02 20:08:49;;;;;;;2.17;1.80;;;25.40;41.10;;;;;;5097043;27;88588;-75
2022/06/02 20:11:27;;;;;;;4.03;1.67;;;25.40;41.80;;;;;;5084666;27;90636;-73
2022/06/02 20:13:59;;;;;;;2.57;1.63;;;25.40;41.30;;;;;;5082381;27;90013;-73
2022/06/02 20:16:32;;;;;;;9.37;1.73;;;25.30;41.40;;;;;;5082885;27;88392;-75
2022/06/02 20:19:03;;;;;;;2.40;1.50;;;25.30;41.50;;;;;;5083608;27;90145;-75
2022/06/02 20:21:35;;;;;;;1.77;1.30;;;25.30;41.60;;;;;;5082596;27;90027;-75
2022/06/02 20:24:09;;;;;;;1.27;1.00;;;25.50;41.50;;;;;;5085741;27;88905;-67
2022/06/02 20:26:42;;;;;;;1.87;1.50;;;25.50;41.40;;;;;;5083853;27;88543;-74
2022/06/02 20:29:32;;;;;;;1.40;1.27;;;25.40;41.40;;;;;;5082554;27;88776;-74
2022/06/02 20:32:05;;;;;;;1.20;1.10;;;25.40;41.50;;;;;;5082731;27;91166;-76
2022/06/02 20:34:51;;;;;;;2.70;1.10;;;25.40;41.40;;;;;;5082124;27;89380;-74
2022/06/02 20:37:30;;;;;;;2.40;1.30;;;25.30;41.50;;;;;;5096098;27;88558;-76
2022/06/02 20:40:00;;;;;;;1.67;1.57;;;25.30;41.40;;;;;;5086077;27;88629;-75
2022/06/02 20:42:38;;;;;;;1.53;1.40;;;25.30;41.50;;;;;;5082189;27;93034;-73
2022/06/02 20:45:14;;;;;;;4.00;1.53;;;25.30;41.50;;;;;;5090958;27;90195;-75
2022/06/02 20:47:53;;;;;;;1.80;1.30;;;25.30;41.50;;;;;;5096016;27;88548;-75
2022/06/02 20:50:25;;;;;;;1.60;1.50;;;25.30;41.50;;;;;;5088810;27;88520;-75
2022/06/02 20:52:55;;;;;;;1.50;1.40;;;25.30;41.50;;;;;;5085178;27;90973;-73
2022/06/02 20:55:26;;;;;;;1.97;1.57;;;25.30;41.50;;;;;;5082905;27;89504;-74
2022/06/02 20:57:57;;;;;;;2.87;1.50;;;25.20;41.50;;;;;;5088432;27;88893;-73
2022/06/02 21:00:34;;;;;;;2.03;1.30;;;25.20;41.50;;;;;;5083600;27;88255;-74
2022/06/02 21:03:06;;;;;;;1.23;1.10;;;25.20;41.60;;;;;;5086893;27;90984;-75
2022/06/02 21:05:40;;;;;;;1.20;1.10;;;25.30;41.60;;;;;;5087611;27;90010;-75
2022/06/02 21:08:11;;;;;;;1.63;1.13;;;25.30;41.60;;;;;;5086671;27;88706;-75
2022/06/02 21:10:40;;;;;;;1.30;1.20;;;25.30;41.70;;;;;;5082307;27;88597;-75
2022/06/02 21:13:11;;;;;;;1.60;1.37;;;25.30;41.70;;;;;;5089537;27;91033;-75
2022/06/02 21:16:06;;;;;;;1.83;1.60;;;25.30;41.70;;;;;;5085865;27;90070;-74
2022/06/02 21:18:42;;;;;;;1.20;1.10;;;25.20;41.60;;;;;;5084251;27;88349;-73